This is the latest recevied weather packets stored in our database for station/object AG1T-20. If no packets are shown the sender has not sent any weather packets the latest 10 day(s).
| Time | Temp. | Humidity | Pressure | Rain* | Wind** | Luminosity | Snow |
|---|---|---|---|---|---|---|---|
| 1787964605 | 27.78° C | 34% | 1017.7 hPa | 0 mm | - | 22 W/m² | - |
| 1787964005 | 28.33° C | 34% | 1017.7 hPa | 0 mm | - | 49 W/m² | - |
| 1787963405 | 27.78° C | 36% | 1017.7 hPa | 0 mm | - | 36 W/m² | - |
| 1787962807 | 28.33° C | 40% | 1017.7 hPa | 0 mm | - | 63 W/m² | - |
| 1787962205 | 30.56° C | 31% | 1017.7 hPa | 0 mm | - | 96 W/m² | - |
| 1787961605 | 30.56° C | 32% | 1017.7 hPa | 0 mm | - | 194 W/m² | - |
| 1787961005 | 28.89° C | 34% | 1018 hPa | 0 mm | - | 77 W/m² | - |
| 1787960405 | 29.44° C | 31% | 1018 hPa | 0 mm | - | 78 W/m² | - |
| 1787959805 | 30° C | 32% | 1018 hPa | 0 mm | - | 153 W/m² | - |
| 1787959205 | 31.11° C | 30% | 1018 hPa | 0 mm | - | 170 W/m² | - |
| 1787958605 | 31.11° C | 28% | 1018 hPa | 0 mm | - | 193 W/m² | - |
| 1787958005 | 31.67° C | 30% | 1018 hPa | 0 mm | - | 298 W/m² | - |
| 1787957405 | 31.11° C | 32% | 1018.6 hPa | 0 mm | - | 300 W/m² | - |
| 1787956805 | 32.22° C | 30% | 1018.6 hPa | 0 mm | - | 317 W/m² | - |
| 1787956205 | 32.22° C | 28% | 1018.6 hPa | 0 mm | - | 394 W/m² | - |
| 1787955605 | 30.56° C | 33% | 1018.6 hPa | 0 mm | - | 433 W/m² | - |
| 1787955005 | 30° C | 32% | 1018.6 hPa | 0 mm | - | 257 W/m² | - |
| 1787954417 | 30° C | 32% | 1018.6 hPa | 0 mm | - | 269 W/m² | - |
| 1787953805 | 28.89° C | 33% | 1019.4 hPa | 0 mm | - | 192 W/m² | - |
| 1787953205 | 28.89° C | 33% | 1019.4 hPa | 0 mm | - | 233 W/m² | - |
| 1787952605 | 28.33° C | 36% | 1019.4 hPa | 0 mm | - | 230 W/m² | - |
| 1787952005 | 30° C | 32% | 1019.4 hPa | 0 mm | - | 291 W/m² | - |
| 1787951405 | 29.44° C | 31% | 1019.4 hPa | 0 mm | - | 215 W/m² | - |
| 1787950805 | 29.44° C | 32% | 1019.4 hPa | 0 mm | - | 197 W/m² | - |
| 1787950205 | 30° C | 31% | 1020.1 hPa | 0 mm | - | 193 W/m² | - |
* Rain latest hour (hover to see other rain measurements)
** Current wind speed in m/s (hover to see current wind gust speed)